createdAt,value
2019-05-11T00:01:31.002Z,0.00
2019-05-11T00:06:35.014Z,0.00
2019-05-11T00:11:39.123Z,1.00
2019-05-11T00:16:43.118Z,0.80
2019-05-11T00:21:47.127Z,0.00
2019-05-11T00:26:51.189Z,0.25
2019-05-11T00:31:55.177Z,0.00
2019-05-11T00:36:59.213Z,0.00
2019-05-11T00:42:03.207Z,0.00
2019-05-11T00:47:07.206Z,0.00
2019-05-11T00:52:11.276Z,0.00
2019-05-11T00:57:15.266Z,0.00
2019-05-11T01:02:19.253Z,0.00
2019-05-11T01:07:23.262Z,0.00
2019-05-11T01:12:27.306Z,0.00
2019-05-11T01:17:31.381Z,0.00
2019-05-11T01:22:35.385Z,-0.25
2019-05-11T01:27:39.441Z,0.00
2019-05-11T01:32:43.589Z,0.00
2019-05-11T01:37:47.686Z,0.00
2019-05-11T01:42:51.767Z,0.00
2019-05-11T01:47:55.799Z,0.25
2019-05-11T01:52:59.862Z,0.00
2019-05-11T01:58:03.966Z,0.00
2019-05-11T02:03:07.952Z,0.00
2019-05-11T02:08:11.953Z,0.00
2019-05-11T02:13:15.940Z,0.00
2019-05-11T02:18:20.002Z,0.00
2019-05-11T02:23:23.984Z,0.00
2019-05-11T02:28:27.997Z,0.00
2019-05-11T02:33:31.997Z,0.00
2019-05-11T02:38:35.997Z,0.00
2019-05-11T02:43:40.730Z,0.00
2019-05-11T02:48:44.791Z,0.00
2019-05-11T02:53:50.144Z,0.00
2019-05-11T02:58:54.225Z,0.00
2019-05-11T03:03:58.243Z,0.00
2019-05-11T03:09:02.257Z,0.00
2019-05-11T03:14:06.410Z,0.00
2019-05-11T03:19:10.530Z,0.00
2019-05-11T03:24:14.645Z,0.00
2019-05-11T03:29:18.676Z,0.00
2019-05-11T03:34:22.693Z,0.00
2019-05-11T03:39:26.824Z,0.00
2019-05-11T03:44:30.824Z,0.00
2019-05-11T03:49:34.879Z,0.00
2019-05-11T03:54:38.906Z,0.00
2019-05-11T03:59:42.922Z,0.00
2019-05-11T04:04:46.945Z,0.00
2019-05-11T04:09:50.974Z,0.00
2019-05-11T04:14:54.974Z,0.00
2019-05-11T04:19:59.048Z,0.00
2019-05-11T04:25:03.483Z,0.00
2019-05-11T04:30:07.915Z,0.00
2019-05-11T04:35:12.072Z,0.00
2019-05-11T04:40:16.218Z,0.00
2019-05-11T04:45:20.306Z,0.00
2019-05-11T04:50:24.367Z,0.00
2019-05-11T04:55:28.369Z,0.00
2019-05-11T05:00:32.524Z,0.00
2019-05-11T05:05:36.604Z,0.00
2019-05-11T05:10:40.606Z,0.00
2019-05-11T05:15:44.626Z,0.00
2019-05-11T05:20:48.603Z,0.00
2019-05-11T05:25:52.581Z,0.00
2019-05-11T05:30:56.563Z,0.00
2019-05-11T05:36:00.546Z,0.00
2019-05-11T05:41:04.738Z,0.00
2019-05-11T05:46:08.740Z,0.00
2019-05-11T05:51:12.748Z,0.00
2019-05-11T05:56:16.741Z,0.00
2019-05-11T06:01:20.779Z,0.00
2019-05-11T06:06:24.825Z,0.00
2019-05-11T06:11:28.814Z,0.00
2019-05-11T06:16:33.020Z,0.00
2019-05-11T06:21:37.130Z,0.00
2019-05-11T06:26:41.131Z,0.00
2019-05-11T06:31:45.208Z,0.00
2019-05-11T06:36:49.190Z,0.00
2019-05-11T06:41:53.285Z,0.00
2019-05-11T06:46:57.296Z,0.00
2019-05-11T06:52:01.282Z,0.80
2019-05-11T06:57:05.357Z,0.25
2019-05-11T07:02:09.394Z,1.00
2019-05-11T07:07:13.477Z,1.00
2019-05-11T07:12:17.640Z,0.40
2019-05-11T07:17:21.657Z,1.00
2019-05-11T07:22:25.654Z,3.00
2019-05-11T07:27:29.670Z,2.00
2019-05-11T07:32:33.686Z,7.25
2019-05-11T07:37:38.477Z,9.00
2019-05-11T07:42:42.976Z,8.25
2019-05-11T07:47:48.527Z,6.00
2019-05-11T07:52:53.118Z,5.50
2019-05-11T07:57:58.554Z,5.20
2019-05-11T08:03:03.137Z,4.75
2019-05-11T08:08:08.738Z,4.80
2019-05-11T08:13:12.912Z,3.50
2019-05-11T08:18:18.936Z,3.80
2019-05-11T08:55:33.950Z,4.00
2019-05-11T09:00:38.979Z,4.25
2019-05-11T09:05:43.230Z,4.00
2019-05-11T09:10:48.996Z,5.00
2019-05-11T09:15:53.094Z,4.60
2019-05-11T09:20:57.823Z,5.40
2019-05-11T09:26:01.916Z,3.80
2019-05-11T09:31:08.350Z,3.75
2019-05-11T09:36:11.829Z,5.00
2019-05-11T09:41:17.621Z,4.40
2019-05-11T09:46:21.733Z,3.75
2019-05-11T09:51:25.923Z,4.00
2019-05-11T09:56:29.925Z,5.00
2019-05-11T10:01:33.987Z,3.50
2019-05-11T10:06:39.014Z,5.00
2019-05-11T10:11:44.629Z,4.50
2019-05-11T10:16:49.242Z,4.00
2019-05-11T10:21:53.351Z,4.40
2019-05-11T10:26:57.944Z,4.00
2019-05-11T10:32:02.214Z,4.75
2019-05-11T10:37:08.553Z,4.00
2019-05-11T10:42:12.183Z,4.00
2019-05-11T10:47:18.376Z,4.75
2019-05-11T10:52:22.121Z,3.00
2019-05-11T10:57:28.276Z,4.00
2019-05-11T11:02:31.951Z,3.75
2019-05-11T11:07:38.271Z,4.00
2019-05-11T11:12:43.207Z,4.60
2019-05-11T11:17:48.589Z,4.00
2019-05-11T11:22:52.826Z,4.00
2019-05-11T11:27:57.851Z,5.00
2019-05-11T11:33:02.002Z,3.50
2019-05-11T11:38:08.506Z,3.50
2019-05-11T11:43:11.818Z,3.80
2019-05-11T11:48:15.933Z,3.25
2019-05-11T11:53:20.039Z,4.00
2019-05-11T11:58:24.120Z,3.50
2019-05-11T12:03:28.127Z,3.50
2019-05-11T12:08:32.128Z,4.40
2019-05-11T12:13:38.211Z,3.40
2019-05-11T12:18:41.853Z,3.25
2019-05-11T12:23:48.295Z,3.00
2019-05-11T12:28:51.687Z,3.00
2019-05-11T12:33:55.700Z,2.60
2019-05-11T12:38:59.678Z,3.00
2019-05-11T12:44:03.774Z,4.00
2019-05-11T12:49:07.991Z,3.50
2019-05-11T12:54:12.124Z,2.75
2019-05-11T12:59:18.554Z,3.00
2019-05-11T13:04:21.894Z,3.00
2019-05-11T13:09:25.932Z,4.00
2019-05-11T13:14:30.078Z,3.00
2019-05-11T13:19:34.285Z,3.00
2019-05-11T13:24:38.595Z,3.00
2019-05-11T13:29:42.629Z,3.80
2019-05-11T13:34:48.068Z,3.00
2019-05-11T13:39:52.143Z,2.25
2019-05-11T13:44:58.234Z,3.50
2019-05-11T13:50:01.845Z,4.00
2019-05-11T13:55:07.744Z,2.80
2019-05-11T14:00:12.579Z,2.80
2019-05-11T14:05:18.040Z,2.80
2019-05-11T14:10:22.282Z,1.80
2019-05-11T14:15:28.018Z,3.00
2019-05-11T14:20:32.335Z,3.00
2019-05-11T14:25:38.044Z,2.00
2019-05-11T14:30:42.102Z,3.00
2019-05-11T14:35:46.173Z,1.60
2019-05-11T14:40:50.230Z,3.20
2019-05-11T14:45:54.543Z,2.00
2019-05-11T14:50:59.290Z,3.00
2019-05-11T14:56:03.609Z,2.00
2019-05-11T15:01:08.849Z,2.50
2019-05-11T15:06:13.276Z,3.00
2019-05-11T15:11:19.144Z,1.75
2019-05-11T15:16:23.262Z,2.20
2019-05-11T15:21:30.496Z,2.00
2019-05-11T15:26:34.586Z,2.00
2019-05-11T15:31:38.563Z,2.80
2019-05-11T15:36:44.172Z,3.00
2019-05-11T15:41:48.328Z,1.80
2019-05-11T15:46:52.377Z,1.80
2019-05-11T15:51:58.062Z,1.50
2019-05-11T15:57:02.207Z,5.80
2019-05-11T16:02:08.449Z,6.50
2019-05-11T16:07:12.078Z,6.00
2019-05-11T16:12:17.826Z,3.00
2019-05-11T16:17:21.895Z,3.20
2019-05-11T16:22:27.921Z,4.50
2019-05-11T16:27:31.703Z,4.60
2019-05-11T16:32:38.409Z,3.00
2019-05-11T16:37:41.531Z,2.25
2019-05-11T16:42:47.700Z,3.00
2019-05-11T16:47:51.247Z,4.25
2019-05-11T16:52:55.301Z,3.40
2019-05-11T16:57:59.422Z,3.00
2019-05-11T17:03:03.752Z,3.00
2019-05-11T17:08:08.204Z,3.25
2019-05-11T17:13:12.350Z,3.40
2019-05-11T17:18:18.430Z,3.40
2019-05-11T17:23:22.202Z,3.00
2019-05-11T17:28:26.233Z,3.00
2019-05-11T17:33:30.337Z,3.00
2019-05-11T17:38:34.340Z,2.75
2019-05-11T17:43:38.732Z,3.40
2019-05-11T17:48:42.877Z,4.00
2019-05-11T17:53:48.273Z,3.25
2019-05-11T17:58:52.415Z,3.00
2019-05-11T18:03:58.308Z,3.00
2019-05-11T18:09:02.168Z,2.00
2019-05-11T18:14:08.442Z,2.00
2019-05-11T18:19:12.155Z,3.00
2019-05-11T18:24:17.879Z,3.00
2019-05-11T18:29:22.230Z,4.00
2019-05-11T18:34:26.362Z,2.25
2019-05-11T18:39:30.402Z,1.60
2019-05-11T18:44:34.483Z,2.25
2019-05-11T18:49:38.551Z,3.50
2019-05-11T18:54:42.641Z,2.25
2019-05-11T18:59:48.382Z,1.60
2019-05-11T19:04:52.613Z,4.00
2019-05-11T19:09:57.751Z,2.00
2019-05-11T19:15:01.914Z,2.00
2019-05-11T19:20:08.436Z,2.40
2019-05-11T19:25:12.589Z,3.00
2019-05-11T19:30:18.456Z,2.00
2019-05-11T19:35:22.657Z,1.75
2019-05-11T19:40:26.722Z,2.25
2019-05-11T19:45:30.848Z,2.25
2019-05-11T19:50:34.882Z,2.00
2019-05-11T19:55:38.895Z,1.60
2019-05-11T20:00:42.899Z,2.00
2019-05-11T20:05:48.485Z,1.75
2019-05-11T20:10:52.753Z,1.25
2019-05-11T20:15:57.832Z,1.40
2019-05-11T20:21:15.406Z,2.20
2019-05-11T20:26:08.894Z,2.00
2019-05-11T20:31:13.358Z,2.25
2019-05-11T20:36:17.854Z,2.00
2019-05-11T20:41:22.291Z,2.00
2019-05-11T20:46:27.757Z,2.00
2019-05-11T20:51:36.743Z,2.75
2019-05-11T20:56:38.796Z,2.00
2019-05-11T21:01:43.229Z,2.00
2019-05-11T21:06:47.619Z,2.00
2019-05-11T21:11:51.662Z,1.80
2019-05-11T21:16:58.328Z,1.00
2019-05-11T21:22:01.639Z,1.00
2019-05-11T21:27:05.815Z,1.00
2019-05-11T21:32:09.905Z,1.00
2019-05-11T21:37:13.918Z,2.00
2019-05-11T21:42:18.255Z,2.00
2019-05-11T21:47:22.382Z,1.80
2019-05-11T21:52:28.648Z,2.00
2019-05-11T21:57:32.179Z,1.80
2019-05-11T22:02:38.428Z,1.00
2019-05-11T22:07:42.206Z,1.25
2019-05-11T22:12:48.824Z,2.00
2019-05-11T22:17:51.969Z,1.25
2019-05-11T22:22:58.062Z,1.00
2019-05-11T22:28:01.761Z,1.40
2019-05-11T22:33:05.812Z,1.00
2019-05-11T22:38:09.832Z,1.50
2019-05-11T22:43:14.236Z,1.00
2019-05-11T22:48:18.312Z,1.50
2019-05-11T22:53:22.501Z,1.00
2019-05-11T22:58:26.606Z,2.00
2019-05-11T23:03:30.636Z,1.00
2019-05-11T23:08:34.706Z,1.00
2019-05-11T23:13:38.806Z,1.00
2019-05-11T23:18:42.813Z,0.00
2019-05-11T23:23:47.822Z,0.00
2019-05-11T23:28:52.011Z,1.00
2019-05-11T23:33:57.906Z,0.50
2019-05-11T23:39:01.737Z,1.50
2019-05-11T23:44:05.848Z,1.00
2019-05-11T23:49:09.878Z,1.00
2019-05-11T23:54:13.955Z,1.00
2019-05-11T23:59:18.819Z,1.00
